Time;durP1;ratioP1;P1;durP2;ratioP2;P2;SDS_P1;SDS_P2;PMS_P1;PMS_P2;Temp;Humidity;BMP_temperature;BMP_pressure;BME280_temperature;BME280_humidity;BME280_pressure;Samples;Min_cycle;Max_cycle;Signal;HPM_P1;HPM_P2
2023/06/23 04:31:52;;;;;;;;;;;;;;;21.43;70.68;97615.56;4225564;27;10209;-72
2023/06/23 04:33:55;;;;;;;;;;;;;;;21.72;69.74;97623.56;4210525;28;7676;-86
2023/06/23 04:36:06;;;;;;;;;;;;;;;21.95;69.07;97625.28;4203606;28;5627;-74
2023/06/23 04:38:12;;;;;;;;;;;;;;;22.15;68.95;97627.50;4213244;28;5640;-74
2023/06/23 04:40:26;;;;;;;;;;;;;;;22.29;68.54;97624.22;4206423;28;5644;-71
2023/06/23 04:42:39;;;;;;;;;;;;;;;22.43;68.26;97627.38;4202925;28;5540;-70
2023/06/23 04:44:48;;;;;;;;;;;;;;;22.51;67.72;97635.03;4209183;28;6329;-76
2023/06/23 04:46:55;;;;;;;;;;;;;;;22.59;67.35;97631.91;4200766;28;5728;-73
2023/06/23 04:49:02;;;;;;;;;;;;;;;22.67;67.53;97639.56;4206811;28;6343;-74
2023/06/23 04:51:08;;;;;;;;;;;;;;;22.74;66.97;97646.63;4208015;28;6584;-74
2023/06/23 04:53:17;;;;;;;;;;;;;;;22.79;66.96;97638.63;4208597;28;5631;-76
2023/06/23 04:55:21;;;;;;;;;;;;;;;22.79;66.65;97638.63;4208941;28;5731;-78
2023/06/23 04:57:29;;;;;;;;;;;;;;;22.82;66.63;97649.72;4191025;28;5957;-73
2023/06/23 04:59:35;;;;;;;;;;;;;;;22.84;66.36;97647.59;4206077;28;5742;-73
2023/06/23 05:01:39;;;;;;;;;;;;;;;22.86;66.38;97639.28;4208985;28;5624;-73
2023/06/23 05:03:45;;;;;;;;;;;;;;;22.89;66.21;97654.97;4213855;28;5620;-73
2023/06/23 05:05:52;;;;;;;;;;;;;;;22.90;66.10;97646.63;4209438;28;5778;-73
2023/06/23 05:07:56;;;;;;;;;;;;;;;22.93;65.84;97645.28;4202727;28;5628;-73
2023/06/23 05:10:01;;;;;;;;;;;;;;;22.93;65.97;97642.59;4208463;28;6347;-72
2023/06/23 05:12:07;;;;;;;;;;;;;;;22.94;65.43;97645.03;4199849;28;5691;-73
2023/06/23 05:14:12;;;;;;;;;;;;;;;22.97;65.76;97659.09;4202088;28;6344;-74
2023/06/23 05:16:17;;;;;;;;;;;;;;;23.00;65.53;97656.72;4196439;28;5638;-71
2023/06/23 05:18:23;;;;;;;;;;;;;;;23.03;65.22;97660.78;4212143;28;5728;-71
2023/06/23 05:20:29;;;;;;;;;;;;;;;23.05;65.03;97654.06;4203684;28;6400;-72
2023/06/23 05:22:35;;;;;;;;;;;;;;;23.09;65.21;97665.97;4211895;28;5105;-72
2023/06/23 05:24:39;;;;;;;;;;;;;;;23.14;64.82;97673.31;4212804;28;5886;-70
2023/06/23 05:26:43;;;;;;;;;;;;;;;23.20;64.75;97661.50;4210616;28;5960;-72
2023/06/23 05:28:52;;;;;;;;;;;;;;;23.28;64.69;97662.94;4210729;28;5735;-70
2023/06/23 05:30:56;;;;;;;;;;;;;;;23.36;64.88;97668.72;4203844;28;5648;-71
2023/06/23 05:33:01;;;;;;;;;;;;;;;23.48;64.56;97669.38;4200161;28;5732;-72
2023/06/23 05:35:06;;;;;;;;;;;;;;;23.58;64.52;97667.88;4200026;28;5719;-71
2023/06/23 05:37:12;;;;;;;;;;;;;;;23.67;63.93;97667.19;4206101;28;5690;-71
2023/06/23 05:39:16;;;;;;;;;;;;;;;23.73;64.11;97668.03;4190214;28;5716;-72
2023/06/23 05:41:19;;;;;;;;;;;;;;;23.79;64.05;97667.00;4196606;28;5830;-72
2023/06/23 05:43:22;;;;;;;;;;;;;;;23.84;63.86;97666.22;4192398;28;5767;-72
2023/06/23 05:45:26;;;;;;;;;;;;;;;23.79;63.86;97659.72;4197784;28;5779;-72
2023/06/23 05:47:36;;;;;;;;;;;;;;;23.77;63.84;97659.16;4201335;28;5632;-72
2023/06/23 05:49:45;;;;;;;;;;;;;;;23.83;63.77;97659.22;4192959;28;6345;-73
2023/06/23 05:51:56;;;;;;;;;;;;;;;23.92;63.28;97665.78;4194882;28;5639;-72
2023/06/23 05:54:05;;;;;;;;;;;;;;;24.01;63.39;97664.19;4195766;28;5682;-72
2023/06/23 05:56:15;;;;;;;;;;;;;;;24.07;62.79;97660.47;4201781;28;5646;-71
2023/06/23 05:58:20;;;;;;;;;;;;;;;24.09;62.74;97658.34;4202662;28;5773;-70
2023/06/23 06:00:27;;;;;;;;;;;;;;;24.05;62.93;97654.53;4200536;28;7158;-71
2023/06/23 06:02:34;;;;;;;;;;;;;;;24.06;62.91;97656.97;4202204;28;5760;-71
2023/06/23 06:04:44;;;;;;;;;;;;;;;24.06;62.59;97645.34;4200816;28;5703;-71
2023/06/23 06:06:49;;;;;;;;;;;;;;;24.09;62.89;97644.81;4197388;28;6052;-71
2023/06/23 06:08:55;;;;;;;;;;;;;;;24.09;62.10;97652.94;4186838;28;5678;-71
2023/06/23 06:11:02;;;;;;;;;;;;;;;24.09;62.40;97650.22;4201271;28;5726;-71
2023/06/23 06:13:07;;;;;;;;;;;;;;;24.12;62.28;97652.41;4201869;28;5719;-71
2023/06/23 06:15:12;;;;;;;;;;;;;;;24.14;62.05;97654.88;4202275;28;5694;-71
2023/06/23 06:17:17;;;;;;;;;;;;;;;24.17;62.08;97657.84;4198504;28;6396;-71
2023/06/23 06:19:23;;;;;;;;;;;;;;;24.21;62.32;97650.84;4201265;28;5639;-71
2023/06/23 06:21:26;;;;;;;;;;;;;;;24.23;61.97;97658.69;4201487;28;5726;-71
2023/06/23 06:23:31;;;;;;;;;;;;;;;24.24;61.40;97657.66;4201888;28;5636;-71
2023/06/23 06:25:35;;;;;;;;;;;;;;;24.24;61.55;97666.56;4201773;28;5767;-71
2023/06/23 06:27:40;;;;;;;;;;;;;;;24.27;61.67;97663.34;4198720;28;5799;-71
2023/06/23 06:29:44;;;;;;;;;;;;;;;24.29;61.58;97663.88;4201555;28;5706;-71
2023/06/23 06:31:49;;;;;;;;;;;;;;;24.33;61.25;97664.19;4215143;28;5629;-71
2023/06/23 06:33:54;;;;;;;;;;;;;;;24.36;61.01;97669.91;4209810;28;5910;-71
2023/06/23 06:36:00;;;;;;;;;;;;;;;24.40;60.81;97664.81;4202061;28;5640;-71
2023/06/23 06:38:06;;;;;;;;;;;;;;;24.43;60.65;97663.47;4198980;28;5670;-71
2023/06/23 06:40:12;;;;;;;;;;;;;;;24.46;60.80;97666.44;4202073;28;5684;-71
2023/06/23 06:42:15;;;;;;;;;;;;;;;24.50;60.72;97666.75;4201487;28;5690;-71
2023/06/23 06:44:20;;;;;;;;;;;;;;;24.50;60.26;97669.47;4201258;28;5839;-71
2023/06/23 06:46:23;;;;;;;;;;;;;;;24.54;60.38;97673.25;4187724;28;7699;-71
2023/06/23 06:48:27;;;;;;;;;;;;;;;24.57;60.11;97664.63;4198678;28;5723;-71
2023/06/23 06:50:35;;;;;;;;;;;;;;;24.58;59.63;97660.88;4201677;28;5683;-71
2023/06/23 06:52:40;;;;;;;;;;;;;;;24.60;59.59;97653.31;4201632;28;5683;-71
2023/06/23 06:54:48;;;;;;;;;;;;;;;24.61;59.50;97657.63;4201705;28;5898;-71
2023/06/23 06:56:51;;;;;;;;;;;;;;;24.62;59.30;97656.56;4200880;28;5752;-71
2023/06/23 06:58:54;;;;;;;;;;;;;;;24.65;58.94;97664.13;4200966;28;5652;-71
2023/06/23 07:01:00;;;;;;;;;;;;;;;24.67;59.03;97656.56;4196836;28;5842;-71
2023/06/23 07:03:04;;;;;;;;;;;;;;;24.70;59.00;97658.78;4199991;28;5639;-71
2023/06/23 07:05:08;;;;;;;;;;;;;;;24.71;58.59;97660.41;4200858;28;5703;-71
2023/06/23 07:07:14;;;;;;;;;;;;;;;24.71;58.64;97659.59;4200351;28;5699;-71
2023/06/23 07:09:17;;;;;;;;;;;;;;;24.71;58.48;97663.09;4200230;28;5616;-71
2023/06/23 07:11:20;;;;;;;;;;;;;;;24.71;58.11;97671.22;4201545;28;5752;-71
2023/06/23 07:13:23;;;;;;;;;;;;;;;24.69;57.96;97667.97;4201548;28;5648;-71
2023/06/23 07:15:26;;;;;;;;;;;;;;;24.66;58.37;97666.56;4201603;28;6267;-71
2023/06/23 07:17:30;;;;;;;;;;;;;;;24.56;57.96;97671.09;4202017;28;5803;-71
2023/06/23 07:19:33;;;;;;;;;;;;;;;24.52;57.90;97670.00;4202344;28;5110;-70
2023/06/23 07:21:36;;;;;;;;;;;;;;;24.53;57.96;97663.53;4203517;28;5918;-70
2023/06/23 07:23:39;;;;;;;;;;;;;;;24.53;57.74;97669.75;4195868;28;5946;-70
2023/06/23 07:25:42;;;;;;;;;;;;;;;24.49;57.54;97673.25;4201721;28;5537;-71
2023/06/23 07:27:48;;;;;;;;;;;;;;;24.44;57.42;97665.91;4208085;28;5699;-70
2023/06/23 07:29:50;;;;;;;;;;;;;;;24.45;57.30;97664.81;4200249;28;5636;-70
2023/06/23 07:31:53;;;;;;;;;;;;;;;24.45;56.95;97662.13;4200852;28;5656;-70
2023/06/23 07:33:58;;;;;;;;;;;;;;;24.30;56.88;97654.72;4200880;28;5643;-71
2023/06/23 07:36:01;;;;;;;;;;;;;;;24.28;56.90;97667.66;4200749;28;5616;-71
2023/06/23 07:38:04;;;;;;;;;;;;;;;24.31;56.38;97667.16;4190195;28;5932;-72
2023/06/23 07:40:08;;;;;;;;;;;;;;;24.35;56.20;97665.59;4192469;28;5870;-71
2023/06/23 07:42:11;;;;;;;;;;;;;;;24.30;56.24;97670.94;4194157;28;5612;-71
2023/06/23 07:44:15;;;;;;;;;;;;;;;24.28;55.98;97673.06;4205778;28;5643;-71
2023/06/23 07:46:18;;;;;;;;;;;;;;;24.31;55.95;97672.56;4202357;28;5631;-72
2023/06/23 07:48:22;;;;;;;;;;;;;;;24.33;55.82;97667.72;4199981;28;5824;-71
2023/06/23 07:50:27;;;;;;;;;;;;;;;24.33;55.36;97672.31;4198956;28;5831;-70
2023/06/23 07:52:30;;;;;;;;;;;;;;;24.34;55.39;97665.81;4200654;28;5640;-70
2023/06/23 07:54:33;;;;;;;;;;;;;;;24.36;55.11;97666.41;4199801;28;5760;-70
2023/06/23 07:56:36;;;;;;;;;;;;;;;24.35;54.75;97665.59;4199758;28;5643;-70
2023/06/23 07:58:43;;;;;;;;;;;;;;;24.34;54.74;97661.25;4200581;28;5707;-71
2023/06/23 08:00:46;;;;;;;;;;;;;;;24.37;54.50;97665.31;4200391;28;5743;-71
2023/06/23 08:02:49;;;;;;;;;;;;;;;24.35;54.56;97657.50;4200568;28;5623;-70
2023/06/23 08:04:53;;;;;;;;;;;;;;;24.39;54.47;97663.19;4200757;28;5628;-70
2023/06/23 08:06:57;;;;;;;;;;;;;;;24.41;54.09;97665.63;4200197;28;5706;-70
2023/06/23 08:09:00;;;;;;;;;;;;;;;24.41;54.32;97661.03;4200751;28;5628;-70
2023/06/23 08:11:03;;;;;;;;;;;;;;;24.44;54.30;97662.38;4200669;28;5687;-70
2023/06/23 08:13:06;;;;;;;;;;;;;;;24.46;54.08;97661.03;4200361;28;5790;-71
2023/06/23 08:15:10;;;;;;;;;;;;;;;24.46;54.21;97658.34;4192078;28;5856;-71
2023/06/23 08:17:14;;;;;;;;;;;;;;;24.48;54.35;97656.22;4200279;28;5635;-70
2023/06/23 08:19:21;;;;;;;;;;;;;;;24.48;54.50;97650.00;4199874;28;5694;-72
2023/06/23 08:21:24;;;;;;;;;;;;;;;24.48;54.41;97655.41;4200166;28;5762;-72
2023/06/23 08:23:29;;;;;;;;;;;;;;;24.48;54.19;97652.69;4200966;28;6305;-73
2023/06/23 08:25:38;;;;;;;;;;;;;;;24.49;54.35;97654.31;4200563;28;5731;-70
2023/06/23 08:27:40;;;;;;;;;;;;;;;24.51;54.32;97654.88;4202006;28;5624;-70
2023/06/23 08:29:43;;;;;;;;;;;;;;;24.48;54.40;97656.22;4200912;28;5639;-70
2023/06/23 08:31:46;;;;;;;;;;;;;;;24.48;54.11;97655.41;4198850;28;5689;-70
2023/06/23 08:33:50;;;;;;;;;;;;;;;24.47;54.03;97660.00;4200892;28;5695;-69
2023/06/23 08:35:53;;;;;;;;;;;;;;;24.49;54.13;97657.84;4183305;28;7261;-70
2023/06/23 08:37:56;;;;;;;;;;;;;;;24.52;54.05;97656.50;4200233;28;5731;-70
2023/06/23 08:40:01;;;;;;;;;;;;;;;24.54;53.63;97659.75;4200424;28;6789;-70
2023/06/23 08:42:04;;;;;;;;;;;;;;;24.54;53.83;97659.75;4198009;28;5635;-70
2023/06/23 08:44:09;;;;;;;;;;;;;;;24.54;53.67;97662.44;4198125;28;5624;-70
2023/06/23 08:46:14;;;;;;;;;;;;;;;24.55;54.07;97666.78;4199844;28;5835;-70
2023/06/23 08:48:18;;;;;;;;;;;;;;;24.54;53.92;97676.78;4191210;28;5733;-71
2023/06/23 08:50:22;;;;;;;;;;;;;;;24.52;53.71;97672.72;4198750;28;5616;-71
2023/06/23 08:52:25;;;;;;;;;;;;;;;24.52;53.85;97673.53;4200325;28;5851;-71
2023/06/23 08:54:28;;;;;;;;;;;;;;;24.53;53.33;97671.63;4198340;28;5632;-71
2023/06/23 08:56:34;;;;;;;;;;;;;;;24.54;53.20;97665.16;4200282;28;5636;-71
2023/06/23 08:58:36;;;;;;;;;;;;;;;24.53;53.24;97660.81;4200375;28;5784;-71
2023/06/23 09:00:40;;;;;;;;;;;;;;;24.53;53.33;97668.94;4200498;28;5687;-70
2023/06/23 09:02:43;;;;;;;;;;;;;;;24.54;53.66;97667.84;4200356;28;5628;-70
2023/06/23 09:04:46;;;;;;;;;;;;;;;24.55;53.55;97661.38;4200608;28;5640;-70
2023/06/23 09:06:49;;;;;;;;;;;;;;;24.55;53.34;97670.28;4200827;28;5625;-70
2023/06/23 09:08:52;;;;;;;;;;;;;;;24.55;53.09;97674.88;4203565;28;5781;-70
2023/06/23 09:10:55;;;;;;;;;;;;;;;24.53;53.25;97669.75;4203621;28;5774;-70
2023/06/23 09:15:27;;;;;;;;;;;;;;;24.54;53.27;97665.97;4271936;27;8053;-70
2023/06/23 09:17:31;;;;;;;;;;;;;;;24.53;52.94;97660.81;4277617;27;5730;-70
2023/06/23 09:19:35;;;;;;;;;;;;;;;24.54;52.88;97665.16;4273046;27;5622;-70
2023/06/23 09:21:41;;;;;;;;;;;;;;;24.55;53.15;97667.59;4283547;27;5785;-70
2023/06/23 09:24:01;;;;;;;;;;;;;;;24.57;53.26;97670.03;4283924;27;5610;-71
2023/06/23 09:26:05;;;;;;;;;;;;;;;24.57;52.75;97664.63;4283745;27;5662;-70
2023/06/23 09:28:21;;;;;;;;;;;;;;;24.55;53.08;97662.19;4274792;27;5801;-70
2023/06/23 09:30:33;;;;;;;;;;;;;;;24.58;52.55;97663.56;4283687;27;5603;-70
2023/06/23 09:32:37;;;;;;;;;;;;;;;24.60;52.36;97664.94;4283667;27;7683;-68
2023/06/23 09:34:40;;;;;;;;;;;;;;;24.61;52.66;97668.44;4264897;27;5645;-70
2023/06/23 09:36:43;;;;;;;;;;;;;;;24.62;52.49;97656.56;4263741;27;5632;-69
2023/06/23 09:38:48;;;;;;;;;;;;;;;24.62;52.62;97667.38;4283053;27;6652;-70
2023/06/23 09:41:02;;;;;;;;;;;;;;;24.65;52.58;97666.84;4269179;27;5654;-70
2023/06/23 09:43:05;;;;;;;;;;;;;;;24.66;52.29;97663.06;4268717;27;5610;-70
2023/06/23 09:45:17;;;;;;;;;;;;;;;24.67;52.15;97659.28;4274718;27;5612;-70
2023/06/23 09:47:24;;;;;;;;;;;;;;;24.66;52.22;97668.47;4253811;27;5669;-70
2023/06/23 09:49:27;;;;;;;;;;;;;;;24.67;52.24;97667.38;4261555;27;5871;-70
2023/06/23 09:51:30;;;;;;;;;;;;;;;24.70;51.84;97674.19;4277443;27;5586;-70
2023/06/23 09:53:34;;;;;;;;;;;;;;;24.72;52.29;97670.13;4276701;27;5676;-70
2023/06/23 09:55:37;;;;;;;;;;;;;;;24.73;52.12;97674.47;4252944;27;5872;-70
2023/06/23 09:57:40;;;;;;;;;;;;;;;24.74;51.90;97675.28;4273705;27;5607;-70
2023/06/23 09:59:44;;;;;;;;;;;;;;;24.73;51.52;97677.16;4275816;27;5692;-70
2023/06/23 10:01:49;;;;;;;;;;;;;;;24.69;51.62;97681.47;4266268;27;5616;-69
2023/06/23 10:03:55;;;;;;;;;;;;;;;24.75;51.55;97675.00;4265794;27;5633;-70
2023/06/23 10:05:58;;;;;;;;;;;;;;;24.76;51.55;97679.34;4266422;27;5754;-70
2023/06/23 10:08:12;;;;;;;;;;;;;;;24.77;51.47;97664.72;4282729;27;5610;-69
2023/06/23 10:10:16;;;;;;;;;;;;;;;24.80;51.69;97666.91;4275015;27;5623;-69
2023/06/23 10:12:26;;;;;;;;;;;;;;;24.83;51.30;97674.50;4265464;27;5723;-69
2023/06/23 10:14:31;;;;;;;;;;;;;;;24.83;51.22;97677.22;4273694;27;5716;-69
2023/06/23 10:16:34;;;;;;;;;;;;;;;24.83;51.51;97671.81;4271365;27;5619;-69
2023/06/23 10:18:38;;;;;;;;;;;;;;;24.85;51.49;97666.13;4275500;27;5614;-70
2023/06/23 10:20:42;;;;;;;;;;;;;;;24.84;51.42;97659.09;4265996;27;5734;-70
2023/06/23 10:22:45;;;;;;;;;;;;;;;24.84;50.97;97665.31;4273769;27;5620;-70
2023/06/23 10:24:51;;;;;;;;;;;;;;;24.83;50.76;97660.19;4266682;27;5582;-71
2023/06/23 10:26:58;;;;;;;;;;;;;;;24.82;51.06;97662.06;4254371;27;5625;-71
2023/06/23 10:29:06;;;;;;;;;;;;;;;24.84;50.89;97665.31;4260405;27;5719;-71
2023/06/23 10:31:15;;;;;;;;;;;;;;;24.86;50.76;97665.06;4262323;27;7703;-71
2023/06/23 10:33:22;;;;;;;;;;;;;;;24.89;50.30;97661.81;4253100;27;5653;-71
2023/06/23 10:35:28;;;;;;;;;;;;;;;24.89;50.34;97662.63;4259419;27;5595;-70
2023/06/23 10:37:33;;;;;;;;;;;;;;;24.88;50.23;97661.00;4256119;27;5627;-71
2023/06/23 10:39:51;;;;;;;;;;;;;;;24.89;50.14;97667.22;4236545;27;5685;-71
2023/06/23 10:41:58;;;;;;;;;;;;;;;24.91;50.20;97667.75;4261115;27;5740;-71
2023/06/23 10:44:04;;;;;;;;;;;;;;;24.89;49.90;97678.03;4264182;27;5722;-71
2023/06/23 10:46:08;;;;;;;;;;;;;;;24.90;49.81;97666.94;4247259;27;5876;-70
2023/06/23 10:48:12;;;;;;;;;;;;;;;24.91;49.88;97671.28;4235453;27;5649;-70
2023/06/23 10:50:16;;;;;;;;;;;;;;;24.90;49.78;97668.84;4248068;27;5633;-70
2023/06/23 10:52:19;;;;;;;;;;;;;;;24.87;49.30;97653.97;4248542;27;5621;-68
2023/06/23 10:54:29;;;;;;;;;;;;;;;24.85;49.54;97666.13;4258492;27;5767;-68
2023/06/23 10:56:33;;;;;;;;;;;;;;;24.85;49.26;97658.84;4262212;27;5768;-68
2023/06/23 10:58:49;;;;;;;;;;;;;;;24.88;49.12;97658.28;4257981;27;5739;-67
2023/06/23 11:01:00;;;;;;;;;;;;;;;24.91;49.20;97654.25;4268765;27;5966;-68
2023/06/23 11:03:08;;;;;;;;;;;;;;;24.93;49.04;97657.53;4265954;27;5606;-68
2023/06/23 11:05:17;;;;;;;;;;;;;;;24.92;48.92;97654.00;4260286;27;5703;-67
2023/06/23 11:07:20;;;;;;;;;;;;;;;24.95;48.79;97650.75;4249816;27;5719;-67
2023/06/23 11:09:45;;;;;;;;;;;;;;;24.98;48.55;97636.69;4259953;27;5639;-68
2023/06/23 11:11:48;;;;;;;;;;;;;;;25.03;48.62;97646.78;4251268;27;5742;-68
2023/06/23 11:13:51;;;;;;;;;;;;;;;25.06;48.12;97650.84;4250932;27;5094;-68
2023/06/23 11:15:59;;;;;;;;;;;;;;;25.08;48.46;97643.25;4251170;27;5700;-67
2023/06/23 11:18:05;;;;;;;;;;;;;;;25.09;48.24;97644.88;4253327;27;5621;-68
2023/06/23 11:20:26;;;;;;;;;;;;;;;25.07;47.91;97644.34;4256663;27;5723;-68
2023/06/23 11:22:31;;;;;;;;;;;;;;;25.07;47.83;97647.06;4251326;27;5141;-68
2023/06/23 11:24:34;;;;;;;;;;;;;;;25.10;47.77;97649.22;4247860;27;5775;-68
2023/06/23 11:26:42;;;;;;;;;;;;;;;25.11;47.47;97645.44;4250040;27;5707;-69
2023/06/23 11:28:53;;;;;;;;;;;;;;;25.13;47.98;97640.56;4255494;27;5714;-68
2023/06/23 11:31:04;;;;;;;;;;;;;;;25.16;47.51;97640.88;4244125;27;5779;-69
2023/06/23 11:33:26;;;;;;;;;;;;;;;25.20;47.56;97641.94;4259782;27;7496;-68
2023/06/23 11:35:30;;;;;;;;;;;;;;;25.23;47.77;97635.19;4256964;27;5648;-68
2023/06/23 11:37:36;;;;;;;;;;;;;;;25.23;47.14;97637.88;4261963;27;5676;-69
2023/06/23 11:39:39;;;;;;;;;;;;;;;25.23;47.31;97635.19;4244787;27;5868;-69
2023/06/23 11:41:44;;;;;;;;;;;;;;;25.26;47.12;97634.66;4242486;27;7676;-67
2023/06/23 11:43:47;;;;;;;;;;;;;;;25.28;47.14;97643.31;4245257;27;5706;-67
2023/06/23 11:45:55;;;;;;;;;;;;;;;25.27;47.11;97635.47;4248678;27;6361;-68
2023/06/23 11:47:58;;;;;;;;;;;;;;;25.27;47.16;97632.78;4259076;27;5781;-68
2023/06/23 11:50:02;;;;;;;;;;;;;;;25.31;47.11;97631.97;4254039;27;5594;-67
2023/06/23 11:52:06;;;;;;;;;;;;;;;25.34;47.05;97625.19;4248381;27;5844;-68
2023/06/23 11:54:09;;;;;;;;;;;;;;;25.37;46.82;97617.38;4248418;27;5625;-68
2023/06/23 11:56:15;;;;;;;;;;;;;;;25.38;46.63;97627.13;4262791;27;5089;-69
2023/06/23 11:58:22;;;;;;;;;;;;;;;25.38;46.71;97623.59;4251201;27;5587;-68
2023/06/23 12:00:25;;;;;;;;;;;;;;;25.36;46.74;97626.53;4261466;27;6539;-69
2023/06/23 12:02:28;;;;;;;;;;;;;;;25.36;46.96;97623.03;4250607;27;5625;-67
2023/06/23 12:04:34;;;;;;;;;;;;;;;25.35;46.65;97619.50;4256881;27;7675;-68
2023/06/23 12:06:37;;;;;;;;;;;;;;;25.36;46.76;97617.63;4267810;27;5623;-69
2023/06/23 12:08:40;;;;;;;;;;;;;;;25.36;46.52;97617.63;4251465;27;5827;-68
2023/06/23 12:10:44;;;;;;;;;;;;;;;25.35;46.62;97607.88;4241343;27;5795;-68
2023/06/23 12:12:48;;;;;;;;;;;;;;;25.35;46.41;97605.97;4250092;27;5645;-69
2023/06/23 12:14:59;;;;;;;;;;;;;;;25.37;46.35;97609.25;4243021;27;5633;-69
2023/06/23 12:17:07;;;;;;;;;;;;;;;25.41;46.22;97604.91;4250579;27;5704;-68
2023/06/23 12:19:10;;;;;;;;;;;;;;;25.42;46.14;97595.72;4261757;27;6006;-68
2023/06/23 12:21:15;;;;;;;;;;;;;;;25.44;46.34;97601.66;4255422;27;5831;-68
2023/06/23 12:23:18;;;;;;;;;;;;;;;25.46;46.22;97595.97;4254256;27;5698;-68
2023/06/23 12:25:21;;;;;;;;;;;;;;;25.45;45.87;97599.78;4248608;27;5858;-68
2023/06/23 12:27:25;;;;;;;;;;;;;;;25.44;45.83;97598.16;4250016;27;5682;-69
2023/06/23 12:29:33;;;;;;;;;;;;;;;25.44;45.80;97598.97;4250400;27;5708;-69
2023/06/23 12:31:39;;;;;;;;;;;;;;;25.43;46.01;97597.34;4248532;27;5609;-68
2023/06/23 12:33:42;;;;;;;;;;;;;;;25.45;45.65;97597.88;4250156;27;5715;-69
2023/06/23 12:35:57;;;;;;;;;;;;;;;25.47;45.88;97594.91;4256441;27;5613;-66
2023/06/23 12:38:01;;;;;;;;;;;;;;;25.48;45.64;97586.53;4250322;27;5703;-67
2023/06/23 12:40:05;;;;;;;;;;;;;;;25.52;45.50;97587.59;4252878;27;5624;-68
2023/06/23 12:42:09;;;;;;;;;;;;;;;25.55;45.25;97575.41;4255847;27;5823;-67
2023/06/23 12:44:12;;;;;;;;;;;;;;;25.60;45.27;97580.84;4250837;27;5917;-67
2023/06/23 12:46:16;;;;;;;;;;;;;;;25.64;45.21;97581.13;4248931;27;5848;-69
2023/06/23 12:48:23;;;;;;;;;;;;;;;25.65;44.97;97575.44;4246700;27;5747;-68
2023/06/23 12:50:27;;;;;;;;;;;;;;;25.67;44.85;97575.16;4233057;28;5822;-68
2023/06/23 12:52:39;;;;;;;;;;;;;;;25.68;44.97;97576.78;4248796;27;5724;-67
2023/06/23 12:54:42;;;;;;;;;;;;;;;25.68;45.38;97566.75;4250081;27;5643;-67
2023/06/23 12:56:44;;;;;;;;;;;;;;;25.65;45.16;97567.31;4258282;27;5603;-67
2023/06/23 12:58:47;;;;;;;;;;;;;;;25.65;44.76;97571.91;4250329;27;5101;-67
2023/06/23 13:00:50;;;;;;;;;;;;;;;25.66;44.67;97562.69;4258054;27;5706;-67
2023/06/23 13:02:53;;;;;;;;;;;;;;;25.67;44.59;97565.13;4250187;27;5707;-67
2023/06/23 13:04:58;;;;;;;;;;;;;;;25.69;44.67;97563.00;4248339;27;5760;-72
2023/06/23 13:07:01;;;;;;;;;;;;;;;25.70;44.42;97556.50;4248566;27;5625;-69
2023/06/23 13:09:04;;;;;;;;;;;;;;;25.72;44.28;97550.81;4259109;27;5693;-70
2023/06/23 13:11:07;;;;;;;;;;;;;;;25.74;44.51;97554.88;4251524;27;5772;-68
2023/06/23 13:13:12;;;;;;;;;;;;;;;25.77;44.47;97542.69;4250099;27;5645;-69
2023/06/23 13:15:15;;;;;;;;;;;;;;;25.81;44.17;97546.47;4251775;27;5688;-69
2023/06/23 13:17:21;;;;;;;;;;;;;;;25.85;44.27;97538.63;4266361;27;5703;-68
2023/06/23 13:19:24;;;;;;;;;;;;;;;25.88;44.24;97532.66;4261528;27;7704;-69
2023/06/23 13:21:28;;;;;;;;;;;;;;;25.90;43.89;97533.19;4245104;27;5869;-68
2023/06/23 13:23:31;;;;;;;;;;;;;;;25.90;43.85;97541.31;4242758;27;5795;-69
2023/06/23 13:25:34;;;;;;;;;;;;;;;25.89;43.95;97545.09;4244715;27;5808;-69
2023/06/23 13:27:38;;;;;;;;;;;;;;;25.87;44.11;97539.97;4249481;27;5613;-69
2023/06/23 13:29:43;;;;;;;;;;;;;;;25.88;43.99;97536.16;4256529;27;5610;-69
2023/06/23 13:31:45;;;;;;;;;;;;;;;25.91;43.78;97537.50;4252790;27;5868;-69
2023/06/23 13:33:48;;;;;;;;;;;;;;;25.90;43.95;97536.69;4243752;27;6422;-69
2023/06/23 13:35:51;;;;;;;;;;;;;;;25.89;43.66;97535.09;4246797;27;5733;-69
2023/06/23 13:37:57;;;;;;;;;;;;;;;25.88;43.97;97536.16;4255167;27;5608;-68
2023/06/23 13:39:59;;;;;;;;;;;;;;;25.88;43.92;97538.88;4243552;27;7823;-69
2023/06/23 13:42:06;;;;;;;;;;;;;;;25.87;43.87;97537.25;4248569;27;5731;-69
2023/06/23 13:44:09;;;;;;;;;;;;;;;25.85;43.45;97536.72;4248210;27;5745;-68
2023/06/23 13:46:13;;;;;;;;;;;;;;;25.83;43.40;97549.72;4240757;27;5696;-68
2023/06/23 13:48:18;;;;;;;;;;;;;;;25.81;43.57;97549.16;4244662;27;6564;-68
2023/06/23 13:50:21;;;;;;;;;;;;;;;25.78;43.30;97544.31;4250491;27;5833;-68
2023/06/23 13:52:24;;;;;;;;;;;;;;;25.78;43.72;97555.13;4241087;27;5727;-72
2023/06/23 13:54:28;;;;;;;;;;;;;;;25.78;43.44;97553.25;4244871;27;5696;-70
2023/06/23 13:56:31;;;;;;;;;;;;;;;25.78;43.36;97552.44;4253169;27;5807;-70
2023/06/23 13:58:34;;;;;;;;;;;;;;;25.78;43.64;97544.31;4238570;27;5633;-76
2023/06/23 14:00:37;;;;;;;;;;;;;;;25.78;43.62;97553.25;4246256;27;6308;-71
2023/06/23 14:02:41;;;;;;;;;;;;;;;25.81;43.56;97551.88;4237131;27;5645;-72
2023/06/23 14:04:44;;;;;;;;;;;;;;;25.82;43.39;97553.50;4256922;27;5606;-73
2023/06/23 14:06:47;;;;;;;;;;;;;;;25.82;43.58;97548.91;4261156;27;5659;-71
2023/06/23 14:08:52;;;;;;;;;;;;;;;25.83;43.28;97552.44;4247954;27;5798;-70
2023/06/23 14:10:56;;;;;;;;;;;;;;;25.84;43.42;97543.22;4251490;27;5620;-72
2023/06/23 14:12:59;;;;;;;;;;;;;;;25.84;43.49;97543.22;4240463;27;5645;-70
2023/06/23 14:15:01;;;;;;;;;;;;;;;25.84;43.56;97548.66;4244212;27;5637;-72
2023/06/23 14:17:05;;;;;;;;;;;;;;;25.85;43.42;97554.88;4247040;27;5715;-71
2023/06/23 14:19:08;;;;;;;;;;;;;;;25.83;43.35;97542.41;4252054;27;5829;-71
2023/06/23 14:21:11;;;;;;;;;;;;;;;25.85;43.24;97538.63;4242671;27;6328;-69
2023/06/23 14:23:14;;;;;;;;;;;;;;;25.86;43.27;97545.66;4252199;27;5629;-75
2023/06/23 14:25:17;;;;;;;;;;;;;;;25.86;43.17;97545.66;4250602;27;5871;-70
2023/06/23 14:27:24;;;;;;;;;;;;;;;25.88;43.16;97544.28;4236630;27;5732;-73
2023/06/23 14:29:27;;;;;;;;;;;;;;;25.89;42.95;97539.69;4246290;27;5772;-75
2023/06/23 14:31:30;;;;;;;;;;;;;;;25.89;42.86;97551.34;4246499;27;5652;-81
2023/06/23 14:33:34;;;;;;;;;;;;;;;25.89;43.07;97542.41;4249749;27;5715;-75
2023/06/23 14:35:40;;;;;;;;;;;;;;;25.89;43.08;97535.09;4244353;27;5657;-72
2023/06/23 14:37:44;;;;;;;;;;;;;;;25.88;42.71;97536.16;4249909;27;5640;-72
2023/06/23 14:39:47;;;;;;;;;;;;;;;25.90;42.91;97544.03;4236912;27;5479;-73
2023/06/23 14:41:50;;;;;;;;;;;;;;;25.93;42.91;97536.16;4245044;27;5932;-70
2023/06/23 14:43:54;;;;;;;;;;;;;;;25.95;42.74;97534.00;4246066;27;6411;-68
2023/06/23 14:45:57;;;;;;;;;;;;;;;25.94;42.49;97535.09;4249233;27;6209;-73
2023/06/23 14:48:00;;;;;;;;;;;;;;;25.96;42.53;97538.34;4249536;27;6549;-70
2023/06/23 14:50:03;;;;;;;;;;;;;;;25.97;42.18;97536.44;4244820;27;5641;-73
2023/06/23 14:52:07;;;;;;;;;;;;;;;26.00;42.43;97536.69;4238960;27;6564;-73
2023/06/23 14:54:10;;;;;;;;;;;;;;;26.00;42.14;97531.28;4243376;27;5820;-72
2023/06/23 14:56:12;;;;;;;;;;;;;;;26.03;42.08;97529.91;4247194;27;5225;-74
2023/06/23 14:58:15;;;;;;;;;;;;;;;26.05;42.18;97527.75;4251389;27;6435;-70
2023/06/23 15:00:20;;;;;;;;;;;;;;;26.06;41.76;97519.34;4246350;27;5712;-72
2023/06/23 15:02:24;;;;;;;;;;;;;;;26.07;41.55;97525.56;4238737;27;5653;-73
2023/06/23 15:04:27;;;;;;;;;;;;;;;26.07;41.63;97529.09;4246988;27;5790;-74
2023/06/23 15:06:30;;;;;;;;;;;;;;;26.08;41.87;97528.00;4246181;27;7692;-71
2023/06/23 15:08:33;;;;;;;;;;;;;;;26.11;41.32;97516.59;4246935;27;5839;-79
2023/06/23 15:10:37;;;;;;;;;;;;;;;26.13;41.25;97519.84;4243091;27;6057;-76
2023/06/23 15:12:41;;;;;;;;;;;;;;;26.16;41.15;97523.09;4248042;27;5620;-73
2023/06/23 15:14:44;;;;;;;;;;;;;;;26.17;40.99;97516.63;4249434;27;5636;-75
2023/06/23 15:16:48;;;;;;;;;;;;;;;26.18;41.14;97515.53;4254054;27;5778;-77
2023/06/23 15:18:51;;;;;;;;;;;;;;;26.17;40.86;97516.63;4250964;27;5708;-69
2023/06/23 15:20:54;;;;;;;;;;;;;;;26.17;40.90;97514.72;4243166;27;5621;-67
2023/06/23 15:22:57;;;;;;;;;;;;;;;26.20;40.45;97519.56;4246855;27;5711;-69
2023/06/23 15:25:00;;;;;;;;;;;;;;;26.24;39.95;97514.41;4242059;27;5620;-68
2023/06/23 15:27:03;;;;;;;;;;;;;;;26.25;39.70;97516.84;4245663;27;5704;-69
2023/06/23 15:29:06;;;;;;;;;;;;;;;26.27;39.53;97509.22;4243054;27;5731;-68
2023/06/23 15:31:09;;;;;;;;;;;;;;;26.31;39.51;97520.34;4245209;27;5685;-68
2023/06/23 15:33:14;;;;;;;;;;;;;;;26.32;39.32;97514.66;4242427;27;5665;-68